sensor_id;sensor_type;location;lat;lon;timestamp;temperature;humidity
7317;DHT22;3699;51.462;6.696;2023-11-19T00:02:20;11.90;99.90
7317;DHT22;3699;51.462;6.696;2023-11-19T00:04:47;12.10;99.90
7317;DHT22;3699;51.462;6.696;2023-11-19T00:07:14;12.10;99.90
7317;DHT22;3699;51.462;6.696;2023-11-19T00:09:41;12.20;99.90
7317;DHT22;3699;51.462;6.696;2023-11-19T00:12:09;12.30;99.90
7317;DHT22;3699;51.462;6.696;2023-11-19T00:14:36;12.30;99.90
7317;DHT22;3699;51.462;6.696;2023-11-19T00:17:03;12.30;99.90
7317;DHT22;3699;51.462;6.696;2023-11-19T00:19:31;12.50;99.90
7317;DHT22;3699;51.462;6.696;2023-11-19T00:21:58;12.50;99.90
7317;DHT22;3699;51.462;6.696;2023-11-19T00:24:28;12.60;99.90
7317;DHT22;3699;51.462;6.696;2023-11-19T00:26:55;12.60;99.90
7317;DHT22;3699;51.462;6.696;2023-11-19T00:29:22;12.70;99.90
7317;DHT22;3699;51.462;6.696;2023-11-19T00:31:48;12.70;99.90
7317;DHT22;3699;51.462;6.696;2023-11-19T00:34:15;12.80;99.90
7317;DHT22;3699;51.462;6.696;2023-11-19T00:36:44;12.80;99.90
7317;DHT22;3699;51.462;6.696;2023-11-19T00:39:10;12.90;99.90
7317;DHT22;3699;51.462;6.696;2023-11-19T00:41:40;12.90;99.90
7317;DHT22;3699;51.462;6.696;2023-11-19T00:44:07;12.90;99.90
7317;DHT22;3699;51.462;6.696;2023-11-19T00:46:33;12.90;99.90
7317;DHT22;3699;51.462;6.696;2023-11-19T00:49:00;13.00;99.90
7317;DHT22;3699;51.462;6.696;2023-11-19T00:51:27;13.00;99.90
7317;DHT22;3699;51.462;6.696;2023-11-19T00:53:55;13.00;99.90
7317;DHT22;3699;51.462;6.696;2023-11-19T00:56:22;13.10;99.90
7317;DHT22;3699;51.462;6.696;2023-11-19T00:58:49;13.10;99.90
7317;DHT22;3699;51.462;6.696;2023-11-19T01:01:16;13.10;99.90
7317;DHT22;3699;51.462;6.696;2023-11-19T01:03:43;13.10;99.90
7317;DHT22;3699;51.462;6.696;2023-11-19T01:06:09;13.10;99.90
7317;DHT22;3699;51.462;6.696;2023-11-19T01:08:36;13.10;99.90
7317;DHT22;3699;51.462;6.696;2023-11-19T01:11:04;13.20;99.90
7317;DHT22;3699;51.462;6.696;2023-11-19T01:13:31;13.10;99.90
7317;DHT22;3699;51.462;6.696;2023-11-19T01:15:58;13.20;99.90
7317;DHT22;3699;51.462;6.696;2023-11-19T01:18:27;13.20;99.90
7317;DHT22;3699;51.462;6.696;2023-11-19T01:20:54;13.20;99.90
7317;DHT22;3699;51.462;6.696;2023-11-19T01:23:21;13.20;99.90
7317;DHT22;3699;51.462;6.696;2023-11-19T01:25:47;13.30;99.90
7317;DHT22;3699;51.462;6.696;2023-11-19T01:28:15;13.30;99.90
7317;DHT22;3699;51.462;6.696;2023-11-19T01:30:42;13.30;99.90
7317;DHT22;3699;51.462;6.696;2023-11-19T01:33:09;13.30;99.90
7317;DHT22;3699;51.462;6.696;2023-11-19T01:35:36;13.30;99.90
7317;DHT22;3699;51.462;6.696;2023-11-19T01:38:02;13.30;99.90
7317;DHT22;3699;51.462;6.696;2023-11-19T01:40:29;13.30;99.90
7317;DHT22;3699;51.462;6.696;2023-11-19T01:42:56;13.30;99.90
7317;DHT22;3699;51.462;6.696;2023-11-19T01:45:29;13.40;99.90
7317;DHT22;3699;51.462;6.696;2023-11-19T01:47:56;13.40;99.90
7317;DHT22;3699;51.462;6.696;2023-11-19T01:50:23;13.40;99.90
7317;DHT22;3699;51.462;6.696;2023-11-19T01:55:19;13.30;99.90
7317;DHT22;3699;51.462;6.696;2023-11-19T01:57:47;13.30;99.90
7317;DHT22;3699;51.462;6.696;2023-11-19T02:00:15;13.40;99.90
7317;DHT22;3699;51.462;6.696;2023-11-19T02:02:43;13.40;99.90
7317;DHT22;3699;51.462;6.696;2023-11-19T02:05:12;13.10;99.90
7317;DHT22;3699;51.462;6.696;2023-11-19T02:07:39;13.40;99.90
7317;DHT22;3699;51.462;6.696;2023-11-19T02:10:06;13.40;99.90
7317;DHT22;3699;51.462;6.696;2023-11-19T02:12:38;13.40;99.90
7317;DHT22;3699;51.462;6.696;2023-11-19T02:15:09;13.30;99.90
7317;DHT22;3699;51.462;6.696;2023-11-19T02:17:35;13.00;99.90
7317;DHT22;3699;51.462;6.696;2023-11-19T02:20:05;13.30;99.90
7317;DHT22;3699;51.462;6.696;2023-11-19T02:22:34;13.40;99.90
7317;DHT22;3699;51.462;6.696;2023-11-19T02:25:06;13.40;99.90
7317;DHT22;3699;51.462;6.696;2023-11-19T02:27:49;13.40;99.90
7317;DHT22;3699;51.462;6.696;2023-11-19T02:30:21;13.30;99.90
7317;DHT22;3699;51.462;6.696;2023-11-19T02:32:52;13.30;99.90
7317;DHT22;3699;51.462;6.696;2023-11-19T02:35:18;13.30;99.90
7317;DHT22;3699;51.462;6.696;2023-11-19T02:37:47;13.30;99.90
7317;DHT22;3699;51.462;6.696;2023-11-19T02:40:14;13.30;99.90
7317;DHT22;3699;51.462;6.696;2023-11-19T02:42:41;13.30;99.90
7317;DHT22;3699;51.462;6.696;2023-11-19T02:45:10;13.40;99.90
7317;DHT22;3699;51.462;6.696;2023-11-19T02:47:39;13.40;99.90
7317;DHT22;3699;51.462;6.696;2023-11-19T02:50:08;13.50;99.90
7317;DHT22;3699;51.462;6.696;2023-11-19T02:52:39;13.40;99.90
7317;DHT22;3699;51.462;6.696;2023-11-19T02:55:07;13.40;99.90
7317;DHT22;3699;51.462;6.696;2023-11-19T02:57:37;13.40;99.90
7317;DHT22;3699;51.462;6.696;2023-11-19T03:00:07;13.50;99.90
7317;DHT22;3699;51.462;6.696;2023-11-19T03:02:40;13.50;99.90
7317;DHT22;3699;51.462;6.696;2023-11-19T03:05:11;13.50;99.90
7317;DHT22;3699;51.462;6.696;2023-11-19T03:07:40;13.30;99.90
7317;DHT22;3699;51.462;6.696;2023-11-19T03:10:08;13.50;99.90
7317;DHT22;3699;51.462;6.696;2023-11-19T03:12:37;13.50;99.90
7317;DHT22;3699;51.462;6.696;2023-11-19T03:15:05;13.50;99.90
7317;DHT22;3699;51.462;6.696;2023-11-19T03:17:32;13.50;99.90
7317;DHT22;3699;51.462;6.696;2023-11-19T03:20:00;13.50;99.90
7317;DHT22;3699;51.462;6.696;2023-11-19T03:22:27;13.50;99.90
7317;DHT22;3699;51.462;6.696;2023-11-19T03:24:54;13.50;99.90
7317;DHT22;3699;51.462;6.696;2023-11-19T03:27:20;13.40;99.90
7317;DHT22;3699;51.462;6.696;2023-11-19T03:29:47;13.30;99.90
7317;DHT22;3699;51.462;6.696;2023-11-19T03:32:14;13.30;99.90
7317;DHT22;3699;51.462;6.696;2023-11-19T03:34:41;13.20;99.90
7317;DHT22;3699;51.462;6.696;2023-11-19T03:37:09;13.20;99.90
7317;DHT22;3699;51.462;6.696;2023-11-19T03:39:35;13.10;99.90
7317;DHT22;3699;51.462;6.696;2023-11-19T03:42:03;13.10;99.90
7317;DHT22;3699;51.462;6.696;2023-11-19T03:44:29;13.00;99.90
7317;DHT22;3699;51.462;6.696;2023-11-19T03:46:56;12.90;99.90
7317;DHT22;3699;51.462;6.696;2023-11-19T03:49:23;13.00;99.90
7317;DHT22;3699;51.462;6.696;2023-11-19T03:51:50;12.90;99.90
7317;DHT22;3699;51.462;6.696;2023-11-19T03:54:18;12.70;99.90
7317;DHT22;3699;51.462;6.696;2023-11-19T03:56:45;12.80;99.90
7317;DHT22;3699;51.462;6.696;2023-11-19T03:59:12;12.70;99.90
7317;DHT22;3699;51.462;6.696;2023-11-19T04:01:40;12.70;99.90
7317;DHT22;3699;51.462;6.696;2023-11-19T04:04:07;12.70;99.90
7317;DHT22;3699;51.462;6.696;2023-11-19T04:06:34;12.60;99.90
7317;DHT22;3699;51.462;6.696;2023-11-19T04:09:01;12.70;99.90
7317;DHT22;3699;51.462;6.696;2023-11-19T04:11:29;12.80;99.90
7317;DHT22;3699;51.462;6.696;2023-11-19T04:13:56;12.90;99.90
7317;DHT22;3699;51.462;6.696;2023-11-19T04:16:26;12.60;99.90
7317;DHT22;3699;51.462;6.696;2023-11-19T04:18:54;12.60;99.90
7317;DHT22;3699;51.462;6.696;2023-11-19T04:21:21;12.50;99.90
7317;DHT22;3699;51.462;6.696;2023-11-19T04:23:48;12.50;99.90
7317;DHT22;3699;51.462;6.696;2023-11-19T04:26:15;12.50;99.90
7317;DHT22;3699;51.462;6.696;2023-11-19T04:28:43;12.40;99.90
7317;DHT22;3699;51.462;6.696;2023-11-19T04:31:10;12.50;99.90
7317;DHT22;3699;51.462;6.696;2023-11-19T04:33:37;12.50;99.90
7317;DHT22;3699;51.462;6.696;2023-11-19T04:36:04;12.50;99.90
7317;DHT22;3699;51.462;6.696;2023-11-19T04:38:31;12.40;99.90
7317;DHT22;3699;51.462;6.696;2023-11-19T04:40:58;12.40;99.90
7317;DHT22;3699;51.462;6.696;2023-11-19T04:43:25;12.40;99.90
7317;DHT22;3699;51.462;6.696;2023-11-19T04:45:54;12.70;99.90
7317;DHT22;3699;51.462;6.696;2023-11-19T04:48:20;12.50;99.90
7317;DHT22;3699;51.462;6.696;2023-11-19T04:50:47;12.60;99.90
7317;DHT22;3699;51.462;6.696;2023-11-19T04:53:14;12.60;99.90
7317;DHT22;3699;51.462;6.696;2023-11-19T04:55:41;12.50;99.90
7317;DHT22;3699;51.462;6.696;2023-11-19T04:58:09;12.50;99.90
7317;DHT22;3699;51.462;6.696;2023-11-19T05:00:35;12.60;99.90
7317;DHT22;3699;51.462;6.696;2023-11-19T05:03:04;12.50;99.90
7317;DHT22;3699;51.462;6.696;2023-11-19T05:05:30;13.30;99.90
7317;DHT22;3699;51.462;6.696;2023-11-19T05:07:58;12.70;99.90
7317;DHT22;3699;51.462;6.696;2023-11-19T05:10:25;12.50;99.90
7317;DHT22;3699;51.462;6.696;2023-11-19T05:12:52;12.70;99.90
7317;DHT22;3699;51.462;6.696;2023-11-19T05:15:18;12.60;99.90
7317;DHT22;3699;51.462;6.696;2023-11-19T05:17:45;12.60;99.90
7317;DHT22;3699;51.462;6.696;2023-11-19T05:20:13;12.60;99.90
7317;DHT22;3699;51.462;6.696;2023-11-19T05:22:41;12.70;99.90
7317;DHT22;3699;51.462;6.696;2023-11-19T05:25:08;12.70;99.90
7317;DHT22;3699;51.462;6.696;2023-11-19T05:27:36;12.70;99.90
7317;DHT22;3699;51.462;6.696;2023-11-19T05:30:04;12.70;99.90
7317;DHT22;3699;51.462;6.696;2023-11-19T05:32:32;12.70;99.90
7317;DHT22;3699;51.462;6.696;2023-11-19T05:34:59;12.70;99.90
7317;DHT22;3699;51.462;6.696;2023-11-19T05:37:28;12.80;99.90
7317;DHT22;3699;51.462;6.696;2023-11-19T05:39:55;12.60;99.90
7317;DHT22;3699;51.462;6.696;2023-11-19T05:42:21;12.80;99.90
7317;DHT22;3699;51.462;6.696;2023-11-19T05:44:49;12.80;99.90
7317;DHT22;3699;51.462;6.696;2023-11-19T05:47:17;12.70;99.90
7317;DHT22;3699;51.462;6.696;2023-11-19T05:49:44;12.70;99.90
7317;DHT22;3699;51.462;6.696;2023-11-19T05:52:10;12.70;99.90
7317;DHT22;3699;51.462;6.696;2023-11-19T05:54:39;12.60;99.90
7317;DHT22;3699;51.462;6.696;2023-11-19T05:57:06;12.60;99.90
7317;DHT22;3699;51.462;6.696;2023-11-19T05:59:34;12.60;99.90
7317;DHT22;3699;51.462;6.696;2023-11-19T06:02:01;12.50;99.90
7317;DHT22;3699;51.462;6.696;2023-11-19T06:04:28;12.50;99.90
7317;DHT22;3699;51.462;6.696;2023-11-19T06:06:55;12.50;99.90
7317;DHT22;3699;51.462;6.696;2023-11-19T06:09:22;12.50;99.90
7317;DHT22;3699;51.462;6.696;2023-11-19T06:11:51;12.40;99.90
7317;DHT22;3699;51.462;6.696;2023-11-19T06:14:18;12.40;99.90
7317;DHT22;3699;51.462;6.696;2023-11-19T06:16:45;12.40;99.90
7317;DHT22;3699;51.462;6.696;2023-11-19T06:19:12;12.30;99.90
7317;DHT22;3699;51.462;6.696;2023-11-19T06:21:38;12.30;99.90
7317;DHT22;3699;51.462;6.696;2023-11-19T06:24:06;12.30;99.90
7317;DHT22;3699;51.462;6.696;2023-11-19T06:26:34;12.30;99.90
7317;DHT22;3699;51.462;6.696;2023-11-19T06:29:02;12.20;99.90
7317;DHT22;3699;51.462;6.696;2023-11-19T06:31:29;12.20;99.90
7317;DHT22;3699;51.462;6.696;2023-11-19T06:33:56;12.20;99.90
7317;DHT22;3699;51.462;6.696;2023-11-19T06:36:23;12.10;99.90
7317;DHT22;3699;51.462;6.696;2023-11-19T06:38:50;12.10;99.90
7317;DHT22;3699;51.462;6.696;2023-11-19T06:41:17;12.10;99.90
7317;DHT22;3699;51.462;6.696;2023-11-19T06:43:44;12.00;99.90
7317;DHT22;3699;51.462;6.696;2023-11-19T06:46:18;12.00;99.90
7317;DHT22;3699;51.462;6.696;2023-11-19T06:48:45;12.00;99.90
7317;DHT22;3699;51.462;6.696;2023-11-19T06:51:12;12.00;99.90
7317;DHT22;3699;51.462;6.696;2023-11-19T06:53:39;12.00;99.90
7317;DHT22;3699;51.462;6.696;2023-11-19T06:56:10;11.90;99.90
7317;DHT22;3699;51.462;6.696;2023-11-19T06:58:43;11.90;99.90
7317;DHT22;3699;51.462;6.696;2023-11-19T07:01:10;11.90;99.90
7317;DHT22;3699;51.462;6.696;2023-11-19T07:03:38;12.50;99.90
7317;DHT22;3699;51.462;6.696;2023-11-19T07:06:06;11.90;99.90
7317;DHT22;3699;51.462;6.696;2023-11-19T07:08:32;11.90;99.90
7317;DHT22;3699;51.462;6.696;2023-11-19T07:10:59;11.80;99.90
7317;DHT22;3699;51.462;6.696;2023-11-19T07:13:26;11.90;99.90
7317;DHT22;3699;51.462;6.696;2023-11-19T07:15:53;11.90;99.90
7317;DHT22;3699;51.462;6.696;2023-11-19T07:18:20;11.90;99.90
7317;DHT22;3699;51.462;6.696;2023-11-19T07:20:48;11.90;99.90
7317;DHT22;3699;51.462;6.696;2023-11-19T07:23:15;11.50;99.90
7317;DHT22;3699;51.462;6.696;2023-11-19T07:25:42;11.90;99.90
7317;DHT22;3699;51.462;6.696;2023-11-19T07:28:10;11.90;99.90
7317;DHT22;3699;51.462;6.696;2023-11-19T07:30:38;11.90;99.90
7317;DHT22;3699;51.462;6.696;2023-11-19T07:33:04;11.90;99.90
7317;DHT22;3699;51.462;6.696;2023-11-19T07:35:31;11.90;99.90
7317;DHT22;3699;51.462;6.696;2023-11-19T07:38:00;11.90;99.90
7317;DHT22;3699;51.462;6.696;2023-11-19T07:40:26;12.00;99.90
7317;DHT22;3699;51.462;6.696;2023-11-19T07:42:54;12.20;99.90
7317;DHT22;3699;51.462;6.696;2023-11-19T07:45:21;11.90;99.90
7317;DHT22;3699;51.462;6.696;2023-11-19T07:47:48;12.00;99.90
7317;DHT22;3699;51.462;6.696;2023-11-19T07:50:16;12.00;99.90
7317;DHT22;3699;51.462;6.696;2023-11-19T07:52:45;12.00;99.90
7317;DHT22;3699;51.462;6.696;2023-11-19T07:55:14;12.00;99.90
7317;DHT22;3699;51.462;6.696;2023-11-19T07:57:40;12.00;99.90
7317;DHT22;3699;51.462;6.696;2023-11-19T08:00:08;12.00;99.90
7317;DHT22;3699;51.462;6.696;2023-11-19T08:02:37;12.10;99.90
7317;DHT22;3699;51.462;6.696;2023-11-19T08:05:05;12.10;99.90
7317;DHT22;3699;51.462;6.696;2023-11-19T08:07:31;12.10;99.90
7317;DHT22;3699;51.462;6.696;2023-11-19T08:09:58;11.90;99.90
7317;DHT22;3699;51.462;6.696;2023-11-19T08:12:26;12.20;99.90
7317;DHT22;3699;51.462;6.696;2023-11-19T08:14:53;12.90;99.90
7317;DHT22;3699;51.462;6.696;2023-11-19T08:17:20;12.40;99.90
7317;DHT22;3699;51.462;6.696;2023-11-19T08:19:48;12.30;99.90
7317;DHT22;3699;51.462;6.696;2023-11-19T08:24:43;12.80;99.90
7317;DHT22;3699;51.462;6.696;2023-11-19T08:27:10;12.30;99.90
7317;DHT22;3699;51.462;6.696;2023-11-19T08:29:38;12.70;99.90
7317;DHT22;3699;51.462;6.696;2023-11-19T08:32:06;12.50;99.90
7317;DHT22;3699;51.462;6.696;2023-11-19T08:34:32;12.60;99.90
7317;DHT22;3699;51.462;6.696;2023-11-19T08:37:00;12.60;99.90
7317;DHT22;3699;51.462;6.696;2023-11-19T08:39:26;12.70;99.90
7317;DHT22;3699;51.462;6.696;2023-11-19T08:41:53;12.70;99.90
7317;DHT22;3699;51.462;6.696;2023-11-19T08:44:21;12.70;99.90
7317;DHT22;3699;51.462;6.696;2023-11-19T08:46:50;12.80;99.90
7317;DHT22;3699;51.462;6.696;2023-11-19T08:49:17;12.80;99.90
7317;DHT22;3699;51.462;6.696;2023-11-19T08:51:44;12.90;99.90
7317;DHT22;3699;51.462;6.696;2023-11-19T08:54:10;12.90;99.90
7317;DHT22;3699;51.462;6.696;2023-11-19T08:56:38;12.90;99.90
7317;DHT22;3699;51.462;6.696;2023-11-19T08:59:05;12.90;99.90
7317;DHT22;3699;51.462;6.696;2023-11-19T09:01:33;13.00;99.90
7317;DHT22;3699;51.462;6.696;2023-11-19T09:04:01;13.00;99.90
7317;DHT22;3699;51.462;6.696;2023-11-19T09:06:28;13.00;99.90
7317;DHT22;3699;51.462;6.696;2023-11-19T09:08:55;13.10;99.90
7317;DHT22;3699;51.462;6.696;2023-11-19T09:11:26;13.10;99.90
7317;DHT22;3699;51.462;6.696;2023-11-19T09:13:52;13.20;99.90
7317;DHT22;3699;51.462;6.696;2023-11-19T09:16:19;13.20;99.90
7317;DHT22;3699;51.462;6.696;2023-11-19T09:18:47;13.30;99.90
7317;DHT22;3699;51.462;6.696;2023-11-19T09:21:15;13.30;99.90
7317;DHT22;3699;51.462;6.696;2023-11-19T09:23:42;13.40;99.90
7317;DHT22;3699;51.462;6.696;2023-11-19T09:26:09;13.40;99.90
7317;DHT22;3699;51.462;6.696;2023-11-19T09:28:36;13.40;99.90
7317;DHT22;3699;51.462;6.696;2023-11-19T09:31:12;13.50;99.90
7317;DHT22;3699;51.462;6.696;2023-11-19T09:33:39;13.60;99.90
7317;DHT22;3699;51.462;6.696;2023-11-19T09:36:06;13.60;99.90
7317;DHT22;3699;51.462;6.696;2023-11-19T09:38:35;13.70;99.90
7317;DHT22;3699;51.462;6.696;2023-11-19T09:41:04;13.70;99.90
7317;DHT22;3699;51.462;6.696;2023-11-19T09:43:34;13.80;99.90
7317;DHT22;3699;51.462;6.696;2023-11-19T09:46:05;13.80;99.90
7317;DHT22;3699;51.462;6.696;2023-11-19T09:48:33;13.80;99.90
7317;DHT22;3699;51.462;6.696;2023-11-19T09:51:01;13.80;99.90
7317;DHT22;3699;51.462;6.696;2023-11-19T09:53:28;13.90;99.90
7317;DHT22;3699;51.462;6.696;2023-11-19T09:55:56;14.00;99.90
7317;DHT22;3699;51.462;6.696;2023-11-19T09:58:23;14.10;99.90
7317;DHT22;3699;51.462;6.696;2023-11-19T10:00:50;14.10;99.90
7317;DHT22;3699;51.462;6.696;2023-11-19T10:03:18;14.20;99.90
7317;DHT22;3699;51.462;6.696;2023-11-19T10:05:45;14.20;99.90
7317;DHT22;3699;51.462;6.696;2023-11-19T10:08:12;14.20;99.90
7317;DHT22;3699;51.462;6.696;2023-11-19T10:10:39;14.20;99.90
7317;DHT22;3699;51.462;6.696;2023-11-19T10:13:07;14.20;99.90
7317;DHT22;3699;51.462;6.696;2023-11-19T10:15:36;14.30;99.90
7317;DHT22;3699;51.462;6.696;2023-11-19T10:18:03;14.30;99.90
7317;DHT22;3699;51.462;6.696;2023-11-19T10:20:35;14.20;99.90
7317;DHT22;3699;51.462;6.696;2023-11-19T10:23:03;14.30;99.90
7317;DHT22;3699;51.462;6.696;2023-11-19T10:25:30;14.30;99.90
7317;DHT22;3699;51.462;6.696;2023-11-19T10:27:57;14.40;99.90
7317;DHT22;3699;51.462;6.696;2023-11-19T10:30:26;14.40;99.90
7317;DHT22;3699;51.462;6.696;2023-11-19T10:33:03;14.50;99.90
7317;DHT22;3699;51.462;6.696;2023-11-19T10:35:31;14.50;99.90
7317;DHT22;3699;51.462;6.696;2023-11-19T10:37:59;14.50;99.90
7317;DHT22;3699;51.462;6.696;2023-11-19T10:40:38;14.60;99.90
7317;DHT22;3699;51.462;6.696;2023-11-19T10:43:05;14.60;99.90
7317;DHT22;3699;51.462;6.696;2023-11-19T10:45:34;14.50;99.90
7317;DHT22;3699;51.462;6.696;2023-11-19T10:48:02;14.50;99.90
7317;DHT22;3699;51.462;6.696;2023-11-19T10:50:33;14.60;99.90
7317;DHT22;3699;51.462;6.696;2023-11-19T10:53:02;14.70;99.90
7317;DHT22;3699;51.462;6.696;2023-11-19T10:55:31;15.00;99.90
7317;DHT22;3699;51.462;6.696;2023-11-19T10:57:59;14.80;99.90
7317;DHT22;3699;51.462;6.696;2023-11-19T11:00:29;14.80;99.90
7317;DHT22;3699;51.462;6.696;2023-11-19T11:03:00;14.80;99.90
7317;DHT22;3699;51.462;6.696;2023-11-19T11:05:29;14.80;99.90
7317;DHT22;3699;51.462;6.696;2023-11-19T11:08:00;14.80;99.90
7317;DHT22;3699;51.462;6.696;2023-11-19T11:10:28;14.80;99.90
7317;DHT22;3699;51.462;6.696;2023-11-19T11:12:59;14.90;99.90
7317;DHT22;3699;51.462;6.696;2023-11-19T11:15:30;14.90;99.90
7317;DHT22;3699;51.462;6.696;2023-11-19T11:18:00;15.00;99.90
7317;DHT22;3699;51.462;6.696;2023-11-19T11:20:29;15.00;99.90
7317;DHT22;3699;51.462;6.696;2023-11-19T11:23:06;15.00;99.90
7317;DHT22;3699;51.462;6.696;2023-11-19T11:25:42;15.10;99.90
7317;DHT22;3699;51.462;6.696;2023-11-19T11:28:25;15.10;99.90
7317;DHT22;3699;51.462;6.696;2023-11-19T11:31:14;15.20;99.90
7317;DHT22;3699;51.462;6.696;2023-11-19T11:34:16;15.30;99.90
7317;DHT22;3699;51.462;6.696;2023-11-19T11:36:52;15.50;99.90
7317;DHT22;3699;51.462;6.696;2023-11-19T11:39:22;15.40;99.90
7317;DHT22;3699;51.462;6.696;2023-11-19T11:42:34;15.40;99.90
7317;DHT22;3699;51.462;6.696;2023-11-19T11:45:02;15.50;99.90
7317;DHT22;3699;51.462;6.696;2023-11-19T11:48:14;15.40;99.90
7317;DHT22;3699;51.462;6.696;2023-11-19T11:50:54;15.50;99.90
7317;DHT22;3699;51.462;6.696;2023-11-19T11:53:22;15.30;99.90
7317;DHT22;3699;51.462;6.696;2023-11-19T11:55:57;15.20;99.90
7317;DHT22;3699;51.462;6.696;2023-11-19T11:58:36;15.10;99.90
7317;DHT22;3699;51.462;6.696;2023-11-19T12:01:05;15.10;99.90
7317;DHT22;3699;51.462;6.696;2023-11-19T12:03:34;15.20;99.90
7317;DHT22;3699;51.462;6.696;2023-11-19T12:06:03;15.20;99.90
7317;DHT22;3699;51.462;6.696;2023-11-19T12:08:30;15.30;99.90
7317;DHT22;3699;51.462;6.696;2023-11-19T12:10:58;15.40;99.90
7317;DHT22;3699;51.462;6.696;2023-11-19T12:13:42;15.50;99.90
7317;DHT22;3699;51.462;6.696;2023-11-19T12:16:10;15.50;99.90
7317;DHT22;3699;51.462;6.696;2023-11-19T12:18:39;15.50;99.90
7317;DHT22;3699;51.462;6.696;2023-11-19T12:21:08;15.70;99.90
7317;DHT22;3699;51.462;6.696;2023-11-19T12:23:45;15.50;99.90
7317;DHT22;3699;51.462;6.696;2023-11-19T12:26:36;15.50;99.90
7317;DHT22;3699;51.462;6.696;2023-11-19T12:29:03;15.50;99.90
7317;DHT22;3699;51.462;6.696;2023-11-19T12:31:32;15.50;99.90
7317;DHT22;3699;51.462;6.696;2023-11-19T12:34:05;15.30;99.90
7317;DHT22;3699;51.462;6.696;2023-11-19T12:36:33;15.30;99.90
7317;DHT22;3699;51.462;6.696;2023-11-19T12:39:00;15.10;99.90
7317;DHT22;3699;51.462;6.696;2023-11-19T12:41:27;15.00;99.90
7317;DHT22;3699;51.462;6.696;2023-11-19T12:43:57;15.00;99.90
7317;DHT22;3699;51.462;6.696;2023-11-19T12:46:34;14.90;99.90
7317;DHT22;3699;51.462;6.696;2023-11-19T12:49:01;14.80;99.90
7317;DHT22;3699;51.462;6.696;2023-11-19T12:51:32;14.70;99.90
7317;DHT22;3699;51.462;6.696;2023-11-19T12:53:59;14.60;99.90
7317;DHT22;3699;51.462;6.696;2023-11-19T12:56:26;14.50;99.90
7317;DHT22;3699;51.462;6.696;2023-11-19T12:58:53;14.40;99.90
7317;DHT22;3699;51.462;6.696;2023-11-19T13:01:20;14.40;99.90
7317;DHT22;3699;51.462;6.696;2023-11-19T13:03:48;14.30;99.90
7317;DHT22;3699;51.462;6.696;2023-11-19T13:06:16;14.30;99.90
7317;DHT22;3699;51.462;6.696;2023-11-19T13:08:48;14.40;99.90
7317;DHT22;3699;51.462;6.696;2023-11-19T13:11:30;14.40;99.90
7317;DHT22;3699;51.462;6.696;2023-11-19T13:13:58;14.50;99.90
7317;DHT22;3699;51.462;6.696;2023-11-19T13:16:27;14.50;99.90
7317;DHT22;3699;51.462;6.696;2023-11-19T13:18:54;14.60;99.90
7317;DHT22;3699;51.462;6.696;2023-11-19T13:21:22;14.50;99.90
7317;DHT22;3699;51.462;6.696;2023-11-19T13:23:50;14.50;99.90
7317;DHT22;3699;51.462;6.696;2023-11-19T13:26:17;14.40;99.90
7317;DHT22;3699;51.462;6.696;2023-11-19T13:28:44;14.40;99.90
7317;DHT22;3699;51.462;6.696;2023-11-19T13:31:11;14.40;99.90
7317;DHT22;3699;51.462;6.696;2023-11-19T13:33:38;14.20;99.90
7317;DHT22;3699;51.462;6.696;2023-11-19T13:36:05;14.40;99.90
7317;DHT22;3699;51.462;6.696;2023-11-19T13:38:33;14.30;99.90
7317;DHT22;3699;51.462;6.696;2023-11-19T13:41:02;14.30;99.90
7317;DHT22;3699;51.462;6.696;2023-11-19T13:43:30;14.20;99.90
7317;DHT22;3699;51.462;6.696;2023-11-19T13:45:57;14.20;99.90
7317;DHT22;3699;51.462;6.696;2023-11-19T13:48:24;14.10;99.90
7317;DHT22;3699;51.462;6.696;2023-11-19T13:50:52;14.10;99.90
7317;DHT22;3699;51.462;6.696;2023-11-19T13:53:18;14.00;99.90
7317;DHT22;3699;51.462;6.696;2023-11-19T13:55:45;14.00;99.90
7317;DHT22;3699;51.462;6.696;2023-11-19T13:58:14;13.90;99.90
7317;DHT22;3699;51.462;6.696;2023-11-19T14:00:41;13.80;99.90
7317;DHT22;3699;51.462;6.696;2023-11-19T14:03:08;13.80;99.90
7317;DHT22;3699;51.462;6.696;2023-11-19T14:05:36;13.70;99.90
7317;DHT22;3699;51.462;6.696;2023-11-19T14:08:02;13.70;99.90
7317;DHT22;3699;51.462;6.696;2023-11-19T14:10:38;13.70;99.90
7317;DHT22;3699;51.462;6.696;2023-11-19T14:13:06;13.70;99.90
7317;DHT22;3699;51.462;6.696;2023-11-19T14:15:34;13.60;99.90
7317;DHT22;3699;51.462;6.696;2023-11-19T14:18:01;13.60;99.90
7317;DHT22;3699;51.462;6.696;2023-11-19T14:20:29;13.60;99.90
7317;DHT22;3699;51.462;6.696;2023-11-19T14:22:55;13.60;99.90
7317;DHT22;3699;51.462;6.696;2023-11-19T14:25:23;13.60;99.90
7317;DHT22;3699;51.462;6.696;2023-11-19T14:27:49;13.70;99.90
7317;DHT22;3699;51.462;6.696;2023-11-19T14:30:16;13.80;99.90
7317;DHT22;3699;51.462;6.696;2023-11-19T14:32:45;13.80;99.90
7317;DHT22;3699;51.462;6.696;2023-11-19T14:35:14;13.80;99.90
7317;DHT22;3699;51.462;6.696;2023-11-19T14:37:41;13.70;99.90
7317;DHT22;3699;51.462;6.696;2023-11-19T14:40:08;13.80;99.90
7317;DHT22;3699;51.462;6.696;2023-11-19T14:42:36;13.80;99.90
7317;DHT22;3699;51.462;6.696;2023-11-19T14:45:05;13.70;99.90
7317;DHT22;3699;51.462;6.696;2023-11-19T14:47:32;13.70;99.90
7317;DHT22;3699;51.462;6.696;2023-11-19T14:50:00;13.60;99.90
7317;DHT22;3699;51.462;6.696;2023-11-19T14:52:27;13.50;99.90
7317;DHT22;3699;51.462;6.696;2023-11-19T14:54:54;13.40;99.90
7317;DHT22;3699;51.462;6.696;2023-11-19T14:57:22;13.40;99.90
7317;DHT22;3699;51.462;6.696;2023-11-19T14:59:48;13.30;99.90
7317;DHT22;3699;51.462;6.696;2023-11-19T15:02:15;13.30;99.90
7317;DHT22;3699;51.462;6.696;2023-11-19T15:04:42;13.20;99.90
7317;DHT22;3699;51.462;6.696;2023-11-19T15:07:11;13.20;99.90
7317;DHT22;3699;51.462;6.696;2023-11-19T15:09:37;13.20;99.90
7317;DHT22;3699;51.462;6.696;2023-11-19T15:12:05;13.10;99.90
7317;DHT22;3699;51.462;6.696;2023-11-19T15:14:32;13.10;99.90
7317;DHT22;3699;51.462;6.696;2023-11-19T15:16:59;13.10;99.90
7317;DHT22;3699;51.462;6.696;2023-11-19T15:19:26;13.10;99.90
7317;DHT22;3699;51.462;6.696;2023-11-19T15:21:53;13.00;99.90
7317;DHT22;3699;51.462;6.696;2023-11-19T15:24:22;13.00;99.90
7317;DHT22;3699;51.462;6.696;2023-11-19T15:26:50;13.00;99.90
7317;DHT22;3699;51.462;6.696;2023-11-19T15:29:17;13.00;99.90
7317;DHT22;3699;51.462;6.696;2023-11-19T15:31:44;12.90;99.90
7317;DHT22;3699;51.462;6.696;2023-11-19T15:34:11;12.90;99.90
7317;DHT22;3699;51.462;6.696;2023-11-19T15:36:37;12.90;99.90
7317;DHT22;3699;51.462;6.696;2023-11-19T15:39:04;12.30;99.90
7317;DHT22;3699;51.462;6.696;2023-11-19T15:41:33;12.70;99.90
7317;DHT22;3699;51.462;6.696;2023-11-19T15:44:00;12.60;99.90
7317;DHT22;3699;51.462;6.696;2023-11-19T15:46:29;12.60;99.90
7317;DHT22;3699;51.462;6.696;2023-11-19T15:48:56;12.50;99.90
7317;DHT22;3699;51.462;6.696;2023-11-19T15:51:23;12.40;99.90
7317;DHT22;3699;51.462;6.696;2023-11-19T15:53:49;12.50;99.90
7317;DHT22;3699;51.462;6.696;2023-11-19T15:56:16;12.50;99.90
7317;DHT22;3699;51.462;6.696;2023-11-19T15:58:44;12.40;99.90
7317;DHT22;3699;51.462;6.696;2023-11-19T16:01:11;12.50;99.90
7317;DHT22;3699;51.462;6.696;2023-11-19T16:03:38;12.30;99.90
7317;DHT22;3699;51.462;6.696;2023-11-19T16:06:05;12.50;99.90
7317;DHT22;3699;51.462;6.696;2023-11-19T16:08:32;12.50;99.90
7317;DHT22;3699;51.462;6.696;2023-11-19T16:10:59;12.40;99.90
7317;DHT22;3699;51.462;6.696;2023-11-19T16:13:26;12.40;99.90
7317;DHT22;3699;51.462;6.696;2023-11-19T16:15:54;12.40;99.90